Time;durP1;ratioP1;P1;durP2;ratioP2;P2;SDS_P1;SDS_P2;PMS_P1;PMS_P2;Temp;Humidity;BMP_temperature;BMP_pressure;BME280_temperature;BME280_humidity;BME280_pressure;Samples;Min_cycle;Max_cycle;Signal;HPM_P1;HPM_P2
2021/07/15 00:01:54;;;;;;;6.00;5.28;;;24.40;99.90;;;;;;5094049;28;20103;-90
2021/07/15 00:04:20;;;;;;;7.13;5.38;;;24.40;99.90;;;;;;5041448;28;20544;-90
2021/07/15 00:06:45;;;;;;;6.15;5.55;;;24.40;99.90;;;;;;5039300;28;20041;-92
2021/07/15 00:09:12;;;;;;;7.00;5.20;;;24.40;99.90;;;;;;5055662;28;20482;-90
2021/07/15 00:11:40;;;;;;;6.22;5.53;;;24.40;99.90;;;;;;5073684;28;20036;-90
2021/07/15 00:14:06;;;;;;;6.60;5.63;;;24.40;99.90;;;;;;5055852;28;20028;-90
2021/07/15 00:16:32;;;;;;;6.60;5.13;;;24.40;99.90;;;;;;5055910;28;20028;-90
2021/07/15 00:18:58;;;;;;;7.07;5.72;;;24.40;99.90;;;;;;5055625;28;20159;-90
2021/07/15 00:21:26;;;;;;;7.65;5.75;;;24.40;99.90;;;;;;5039427;28;20033;-90
2021/07/15 00:23:52;;;;;;;6.57;5.60;;;24.40;99.90;;;;;;5056154;28;20035;-90
2021/07/15 00:26:21;;;;;;;6.15;5.43;;;24.40;99.90;;;;;;5073613;28;20036;-90
2021/07/15 00:28:47;;;;;;;7.30;5.38;;;24.40;99.90;;;;;;5073738;28;20021;-91
2021/07/15 00:31:14;;;;;;;6.05;5.05;;;24.40;99.90;;;;;;5055684;28;20028;-90
2021/07/15 00:33:40;;;;;;;7.88;5.50;;;24.40;99.90;;;;;;5055617;28;20496;-90
2021/07/15 00:36:06;;;;;;;6.50;4.93;;;24.40;99.90;;;;;;5038763;28;20028;-90
2021/07/15 00:38:32;;;;;;;5.13;4.60;;;24.40;99.90;;;;;;5055123;28;20086;-90
2021/07/15 00:40:58;;;;;;;5.90;5.30;;;24.40;99.90;;;;;;5055373;28;20029;-90
2021/07/15 00:43:25;;;;;;;6.75;5.38;;;24.40;99.90;;;;;;5039199;28;20102;-91
2021/07/15 00:45:51;;;;;;;6.30;5.50;;;24.40;99.90;;;;;;5055631;28;20043;-91
2021/07/15 00:48:17;;;;;;;5.90;5.30;;;24.40;99.90;;;;;;5073721;28;20474;-90
2021/07/15 00:50:43;;;;;;;5.78;4.85;;;24.30;99.90;;;;;;5040770;28;20035;-90
2021/07/15 00:53:09;;;;;;;5.93;5.32;;;24.40;99.90;;;;;;5044158;28;20047;-90
2021/07/15 00:55:37;;;;;;;6.68;5.15;;;24.40;99.90;;;;;;5044145;28;20052;-90
2021/07/15 00:58:05;;;;;;;5.88;5.15;;;24.40;99.90;;;;;;5077620;28;20028;-90
2021/07/15 01:00:31;;;;;;;5.65;5.15;;;24.30;99.90;;;;;;5059808;28;20045;-91
2021/07/15 01:02:57;;;;;;;5.38;4.85;;;24.40;99.90;;;;;;5059873;28;20068;-90
2021/07/15 01:05:33;;;;;;;5.60;5.05;;;24.40;99.90;;;;;;5069523;28;20051;-91
2021/07/15 01:08:03;;;;;;;6.30;5.60;;;24.40;99.90;;;;;;5080365;28;20028;-90
2021/07/15 01:10:35;;;;;;;5.78;5.18;;;24.30;99.90;;;;;;5099069;28;20114;-91
2021/07/15 01:13:19;;;;;;;5.80;5.20;;;24.40;99.90;;;;;;5081119;28;20028;-91
2021/07/15 01:15:53;;;;;;;7.75;5.25;;;24.40;99.90;;;;;;5081770;28;20031;-91
2021/07/15 01:18:26;;;;;;;5.75;5.15;;;24.30;99.90;;;;;;5082941;28;20086;-91
2021/07/15 01:21:45;;;;;;;5.28;4.78;;;24.40;99.90;;;;;;5081640;28;20105;-92
2021/07/15 01:24:33;;;;;;;5.82;5.03;;;24.40;99.90;;;;;;4980614;28;20133;-91
2021/07/15 01:27:29;;;;;;;5.18;4.68;;;24.30;99.90;;;;;;5099019;28;20051;-90
2021/07/15 01:30:18;;;;;;;6.93;5.75;;;24.30;99.90;;;;;;5086386;28;20020;-91
2021/07/15 01:33:15;;;;;;;5.45;4.95;;;24.30;99.90;;;;;;5079022;28;20032;-91
2021/07/15 01:36:01;;;;;;;7.18;5.63;;;24.30;99.90;;;;;;5079042;28;20429;-90
2021/07/15 01:38:35;;;;;;;8.07;5.18;;;24.30;99.90;;;;;;5078577;28;20028;-91
2021/07/15 01:41:09;;;;;;;6.37;5.10;;;24.30;99.90;;;;;;5097040;28;20113;-90
2021/07/15 01:43:45;;;;;;;6.22;5.00;;;24.30;99.90;;;;;;5079043;28;20514;-91
2021/07/15 01:46:13;;;;;;;6.70;5.72;;;24.30;99.90;;;;;;5096579;28;20077;-91
2021/07/15 01:48:40;;;;;;;6.22;5.45;;;24.30;99.90;;;;;;5078784;28;20381;-90
2021/07/15 01:51:07;;;;;;;5.97;5.38;;;24.30;99.90;;;;;;5062072;28;20095;-92
2021/07/15 01:53:33;;;;;;;5.70;5.03;;;24.30;99.90;;;;;;5078901;28;20036;-91
2021/07/15 01:56:00;;;;;;;5.60;5.10;;;24.30;99.90;;;;;;5078482;28;20065;-91
2021/07/15 01:58:30;;;;;;;6.18;5.28;;;24.30;99.90;;;;;;5083782;28;20527;-91
2021/07/15 02:00:58;;;;;;;6.00;5.40;;;24.30;99.90;;;;;;5085042;28;20024;-91
2021/07/15 02:03:25;;;;;;;5.43;4.68;;;24.30;99.90;;;;;;5080216;28;20024;-91
2021/07/15 02:05:52;;;;;;;5.88;4.80;;;24.30;99.90;;;;;;5080009;28;20048;-91
2021/07/15 02:08:19;;;;;;;5.72;4.93;;;24.30;99.90;;;;;;5078700;28;20032;-91
2021/07/15 02:10:45;;;;;;;7.22;5.70;;;24.30;99.90;;;;;;5096440;28;20028;-91
2021/07/15 02:13:11;;;;;;;5.03;4.50;;;24.30;99.90;;;;;;5078592;28;20119;-91
2021/07/15 02:15:38;;;;;;;6.95;5.07;;;24.30;99.90;;;;;;5078982;28;20028;-91
2021/07/15 02:18:04;;;;;;;5.30;4.63;;;24.30;99.90;;;;;;5078587;28;20038;-91
2021/07/15 02:20:32;;;;;;;5.60;4.85;;;24.30;99.90;;;;;;5061650;28;20071;-91
2021/07/15 02:22:59;;;;;;;5.45;4.95;;;24.30;99.90;;;;;;5061602;28;20032;-92
2021/07/15 02:25:27;;;;;;;6.03;4.60;;;24.30;99.90;;;;;;5078152;28;20161;-91
2021/07/15 02:27:56;;;;;;;4.68;4.22;;;24.30;99.90;;;;;;5078732;28;20046;-92
2021/07/15 02:30:22;;;;;;;5.07;4.57;;;24.30;99.90;;;;;;5077995;28;20031;-91
2021/07/15 02:32:56;;;;;;;5.28;4.70;;;24.30;99.90;;;;;;5078394;28;20390;-90
2021/07/15 02:35:23;;;;;;;4.95;4.45;;;24.30;99.90;;;;;;5095971;28;20465;-90
2021/07/15 02:37:53;;;;;;;4.75;4.25;;;24.30;99.90;;;;;;5061649;28;20101;-91
2021/07/15 02:40:19;;;;;;;5.80;5.20;;;24.30;99.90;;;;;;5078354;28;20032;-91
2021/07/15 02:42:48;;;;;;;6.22;4.68;;;24.30;99.90;;;;;;5096243;28;20080;-91
2021/07/15 02:45:16;;;;;;;5.05;4.55;;;24.30;99.90;;;;;;5077437;28;20024;-91
2021/07/15 02:47:44;;;;;;;6.93;5.03;;;24.30;99.90;;;;;;5077710;28;20036;-91
2021/07/15 02:50:11;;;;;;;5.40;4.90;;;24.20;99.90;;;;;;5077623;28;20453;-91
2021/07/15 02:52:41;;;;;;;5.88;5.28;;;24.30;99.90;;;;;;5061418;28;20058;-91
2021/07/15 02:55:07;;;;;;;5.63;5.03;;;24.20;99.90;;;;;;5077655;28;20032;-91
2021/07/15 02:58:04;;;;;;;5.15;4.63;;;24.20;99.90;;;;;;5078229;28;20035;-91
2021/07/15 03:00:52;;;;;;;4.95;4.45;;;24.20;99.90;;;;;;5077581;28;20024;-91
2021/07/15 03:03:39;;;;;;;5.60;4.85;;;24.20;99.90;;;;;;5095457;28;20024;-91
2021/07/15 03:06:11;;;;;;;5.05;4.60;;;24.20;99.90;;;;;;5077683;28;20074;-91
2021/07/15 03:08:59;;;;;;;5.10;4.55;;;24.20;99.90;;;;;;5081220;28;20024;-91
2021/07/15 03:12:00;;;;;;;5.07;4.57;;;24.20;99.90;;;;;;5099639;28;20489;-90
2021/07/15 03:14:30;;;;;;;5.60;4.85;;;24.20;99.90;;;;;;5042025;28;20036;-91
2021/07/15 03:16:57;;;;;;;6.82;5.10;;;24.20;99.90;;;;;;5082728;28;20028;-90
2021/07/15 03:19:23;;;;;;;6.53;5.00;;;24.20;99.90;;;;;;5053593;28;20032;-91
2021/07/15 03:21:50;;;;;;;7.32;5.32;;;24.20;99.90;;;;;;5077349;28;20032;-91
2021/07/15 03:24:18;;;;;;;6.18;4.97;;;24.20;99.90;;;;;;5076998;28;20032;-91
2021/07/15 03:26:46;;;;;;;7.00;5.05;;;24.20;99.90;;;;;;5076893;28;20031;-91
2021/07/15 03:29:13;;;;;;;7.18;4.53;;;24.20;99.90;;;;;;5076757;28;20036;-91
2021/07/15 03:31:39;;;;;;;5.22;4.70;;;24.20;99.90;;;;;;5076583;28;20366;-91
2021/07/15 03:34:05;;;;;;;5.18;4.13;;;24.20;99.90;;;;;;5059971;28;20032;-92
2021/07/15 03:36:33;;;;;;;6.07;4.70;;;24.20;99.90;;;;;;5076576;28;20034;-91
2021/07/15 03:39:00;;;;;;;4.57;4.07;;;24.20;99.90;;;;;;5076644;28;20032;-91
2021/07/15 03:41:26;;;;;;;5.00;4.50;;;24.20;99.90;;;;;;5094788;28;20106;-91
2021/07/15 03:43:53;;;;;;;5.80;4.90;;;24.20;99.90;;;;;;5076533;28;20032;-90
2021/07/15 03:46:20;;;;;;;5.68;4.40;;;24.20;99.90;;;;;;5060530;28;20081;-91
2021/07/15 03:48:47;;;;;;;5.38;4.30;;;24.20;99.90;;;;;;5043735;28;20078;-91
2021/07/15 03:51:13;;;;;;;4.90;4.32;;;24.20;99.90;;;;;;5043548;28;20032;-91
2021/07/15 03:53:41;;;;;;;4.93;4.43;;;24.20;99.90;;;;;;5076823;28;20067;-91
2021/07/15 03:56:09;;;;;;;7.22;5.00;;;24.20;99.90;;;;;;5094551;28;20024;-92
2021/07/15 03:58:41;;;;;;;6.85;4.35;;;24.20;99.90;;;;;;5076371;28;20474;-91
2021/07/15 04:01:08;;;;;;;5.63;4.10;;;24.10;99.90;;;;;;5060494;28;20032;-91
2021/07/15 04:03:35;;;;;;;4.93;4.38;;;24.20;99.90;;;;;;5076755;28;20052;-91
2021/07/15 04:06:03;;;;;;;5.15;4.30;;;24.20;99.90;;;;;;5075609;28;20121;-92
2021/07/15 04:09:06;;;;;;;5.78;4.50;;;24.20;99.90;;;;;;5059841;28;20024;-90
2021/07/15 04:15:00;;;;;;;5.50;4.25;;;24.10;99.90;;;;;;5096786;28;20023;-91
2021/07/15 04:17:29;;;;;;;5.68;4.05;;;24.10;99.90;;;;;;5080187;28;20036;-92
2021/07/15 04:20:00;;;;;;;5.72;4.32;;;24.10;99.90;;;;;;5077635;28;20051;-91
2021/07/15 04:22:29;;;;;;;4.45;3.85;;;24.10;99.90;;;;;;5059963;28;20043;-90
2021/07/15 04:24:57;;;;;;;5.57;3.90;;;24.10;99.90;;;;;;5093442;28;20509;-91
2021/07/15 04:27:29;;;;;;;4.03;3.60;;;24.10;99.90;;;;;;5059705;28;20085;-90
2021/07/15 04:30:02;;;;;;;5.32;4.13;;;24.10;99.90;;;;;;5075968;28;20036;-90
2021/07/15 04:32:48;;;;;;;4.32;3.92;;;24.10;99.90;;;;;;5094655;28;20028;-91
2021/07/15 04:35:15;;;;;;;5.20;3.88;;;24.10;99.90;;;;;;5075992;28;20032;-90
2021/07/15 04:37:45;;;;;;;5.72;4.55;;;24.10;99.90;;;;;;5076373;28;20024;-91
2021/07/15 04:40:14;;;;;;;4.25;3.85;;;24.10;99.90;;;;;;5093937;28;20051;-94
2021/07/15 04:42:40;;;;;;;3.90;3.50;;;24.10;99.90;;;;;;5075958;28;20055;-91
2021/07/15 04:45:10;;;;;;;4.18;3.45;;;24.20;99.90;;;;;;5095799;28;20035;-91
2021/07/15 04:47:38;;;;;;;4.22;3.55;;;24.10;99.90;;;;;;5094254;28;20104;-90
2021/07/15 04:50:05;;;;;;;4.63;3.85;;;24.20;99.90;;;;;;5070596;28;20028;-90
2021/07/15 04:52:34;;;;;;;3.92;3.40;;;24.20;99.90;;;;;;5044170;28;20041;-90
2021/07/15 04:55:01;;;;;;;4.25;3.50;;;24.20;99.90;;;;;;5037853;28;20036;-90
2021/07/15 04:57:27;;;;;;;4.93;4.05;;;24.20;99.90;;;;;;5019666;28;20036;-91
2021/07/15 04:59:53;;;;;;;4.57;3.78;;;24.10;99.90;;;;;;5053854;28;20132;-90
2021/07/15 05:02:22;;;;;;;3.97;3.25;;;24.20;99.90;;;;;;5019326;28;20471;-90
2021/07/15 05:04:47;;;;;;;5.03;3.90;;;24.20;99.90;;;;;;5019392;28;20029;-90
2021/07/15 05:07:13;;;;;;;5.55;4.40;;;24.20;99.90;;;;;;5037487;28;20104;-90
2021/07/15 05:09:39;;;;;;;4.15;3.42;;;24.20;99.90;;;;;;5030942;28;20033;-90
2021/07/15 05:12:05;;;;;;;4.03;3.38;;;24.10;99.90;;;;;;5018968;28;20033;-88
2021/07/15 05:14:37;;;;;;;5.03;3.83;;;24.10;99.90;;;;;;5052879;28;20033;-88
2021/07/15 05:17:03;;;;;;;4.70;3.60;;;24.10;99.90;;;;;;5035510;28;20052;-89
2021/07/15 05:19:29;;;;;;;3.95;3.50;;;24.10;99.90;;;;;;5018768;28;20063;-90
2021/07/15 05:21:55;;;;;;;4.60;3.75;;;24.10;99.90;;;;;;5024565;28;20056;-90
2021/07/15 05:24:20;;;;;;;4.57;3.63;;;24.10;99.90;;;;;;5022325;28;20036;-90
2021/07/15 05:26:49;;;;;;;4.90;3.38;;;24.10;99.90;;;;;;5020100;28;20482;-90
2021/07/15 05:29:15;;;;;;;3.28;2.90;;;24.10;99.90;;;;;;5019002;28;20056;-90
2021/07/15 05:31:41;;;;;;;5.03;3.67;;;24.10;99.90;;;;;;5019753;28;20033;-90
2021/07/15 05:34:07;;;;;;;4.43;3.80;;;24.10;99.90;;;;;;5035555;28;20032;-90
2021/07/15 05:36:32;;;;;;;4.10;3.60;;;24.10;99.90;;;;;;5035197;28;20029;-90
2021/07/15 05:38:58;;;;;;;4.72;3.70;;;24.10;99.90;;;;;;5021878;28;20075;-90
2021/07/15 05:41:24;;;;;;;3.75;3.15;;;24.10;99.90;;;;;;5022308;28;20075;-90
2021/07/15 05:43:50;;;;;;;4.22;3.28;;;24.10;99.90;;;;;;5022668;28;20029;-89
2021/07/15 05:46:16;;;;;;;3.75;3.45;;;24.10;99.90;;;;;;5022688;28;20441;-90
2021/07/15 05:48:41;;;;;;;3.83;3.42;;;24.10;99.90;;;;;;5038687;28;20129;-91
2021/07/15 05:51:07;;;;;;;4.88;3.47;;;24.10;99.90;;;;;;5021945;28;20029;-89
2021/07/15 05:53:33;;;;;;;4.68;3.45;;;24.10;99.90;;;;;;5021780;28;20077;-89
2021/07/15 05:55:58;;;;;;;4.82;3.55;;;24.10;99.90;;;;;;5038415;28;20060;-89
2021/07/15 05:58:24;;;;;;;5.57;3.70;;;24.10;99.90;;;;;;5022138;28;20115;-90
2021/07/15 06:00:50;;;;;;;3.50;3.03;;;24.10;99.90;;;;;;5038185;28;20055;-90
2021/07/15 06:03:15;;;;;;;4.95;3.22;;;24.10;99.90;;;;;;5038188;28;20474;-89
2021/07/15 06:05:41;;;;;;;4.55;3.40;;;24.10;99.90;;;;;;5035073;28;20068;-89
2021/07/15 06:08:07;;;;;;;4.15;3.30;;;24.10;99.90;;;;;;5002025;28;20033;-89
2021/07/15 06:10:33;;;;;;;3.83;3.35;;;24.10;99.90;;;;;;5018214;28;20029;-89
2021/07/15 06:12:59;;;;;;;3.80;3.25;;;24.10;99.90;;;;;;5035941;28;20033;-89
2021/07/15 06:15:25;;;;;;;3.92;3.30;;;24.10;99.90;;;;;;5035815;28;20091;-89
2021/07/15 06:17:51;;;;;;;3.97;3.50;;;24.10;99.90;;;;;;5001613;28;20029;-90
2021/07/15 06:20:16;;;;;;;4.15;3.35;;;24.10;99.90;;;;;;5001958;28;20045;-90
2021/07/15 06:22:43;;;;;;;4.30;3.83;;;24.10;99.90;;;;;;5018318;28;20115;-88
2021/07/15 06:25:29;;;;;;;3.50;2.90;;;24.10;99.90;;;;;;5018374;28;20465;-88
2021/07/15 06:27:54;;;;;;;4.82;3.30;;;24.10;99.90;;;;;;5036373;28;20030;-88
2021/07/15 06:30:20;;;;;;;3.72;3.00;;;24.10;99.90;;;;;;5037690;28;20034;-87
2021/07/15 06:32:46;;;;;;;4.00;3.00;;;24.10;99.90;;;;;;5033691;28;20531;-87
2021/07/15 06:35:15;;;;;;;2.97;2.60;;;24.10;99.90;;;;;;5035391;28;20064;-87
2021/07/15 06:37:41;;;;;;;2.95;2.65;;;24.10;99.90;;;;;;5034075;28;20033;-88
2021/07/15 06:40:09;;;;;;;3.95;3.10;;;24.10;99.90;;;;;;5035225;28;20025;-87
2021/07/15 06:42:35;;;;;;;3.60;2.95;;;24.10;99.90;;;;;;5035224;28;20049;-87
2021/07/15 06:45:04;;;;;;;3.45;3.10;;;24.10;99.90;;;;;;5035592;28;20036;-88
2021/07/15 06:47:29;;;;;;;4.80;2.90;;;24.10;99.90;;;;;;5035392;28;20022;-88
2021/07/15 06:49:55;;;;;;;3.53;3.10;;;24.10;99.90;;;;;;5017016;28;20051;-88
2021/07/15 06:52:22;;;;;;;3.80;3.20;;;24.10;99.90;;;;;;5035284;28;20510;-88
2021/07/15 06:54:48;;;;;;;3.63;2.97;;;24.10;99.90;;;;;;5033832;28;20460;-88
2021/07/15 06:57:14;;;;;;;3.47;3.08;;;24.10;99.90;;;;;;5017550;28;20042;-87
2021/07/15 06:59:40;;;;;;;2.78;2.55;;;24.10;99.90;;;;;;5035393;28;20487;-87
2021/07/15 07:02:07;;;;;;;3.30;3.00;;;24.10;99.90;;;;;;5034550;28;20398;-88
2021/07/15 07:04:34;;;;;;;3.20;2.90;;;24.10;99.90;;;;;;5033515;28;20103;-88
2021/07/15 07:07:00;;;;;;;2.97;2.67;;;24.10;99.90;;;;;;5037332;28;20056;-88
2021/07/15 07:09:25;;;;;;;3.42;2.72;;;24.10;99.90;;;;;;5037131;28;20060;-87
2021/07/15 07:11:51;;;;;;;4.85;3.25;;;24.10;99.90;;;;;;5020147;28;20127;-87
2021/07/15 07:14:16;;;;;;;6.63;3.70;;;24.10;99.90;;;;;;5054968;28;20116;-87
2021/07/15 07:16:42;;;;;;;5.45;4.22;;;24.10;99.90;;;;;;5036723;28;20467;-90
2021/07/15 07:19:08;;;;;;;4.18;3.78;;;24.20;99.90;;;;;;5020975;28;20540;-88
2021/07/15 07:21:33;;;;;;;5.55;4.50;;;24.20;99.90;;;;;;5036765;28;20101;-89
2021/07/15 07:24:00;;;;;;;6.15;4.47;;;24.20;99.90;;;;;;5021865;28;20029;-88
2021/07/15 07:26:26;;;;;;;6.03;3.95;;;24.20;99.90;;;;;;5036740;28;20454;-89
2021/07/15 07:28:51;;;;;;;8.98;4.68;;;24.20;99.90;;;;;;5036578;28;20029;-88
2021/07/15 07:31:17;;;;;;;5.40;3.75;;;24.30;99.90;;;;;;5020468;28;20481;-90
2021/07/15 07:33:43;;;;;;;4.95;3.90;;;24.30;99.90;;;;;;5036405;28;20053;-89
2021/07/15 07:36:09;;;;;;;7.45;4.15;;;24.30;99.90;;;;;;5055964;28;20033;-87
2021/07/15 07:38:44;;;;;;;4.97;4.07;;;24.30;99.90;;;;;;5060858;28;20029;-88
2021/07/15 07:41:10;;;;;;;4.68;3.95;;;24.30;99.90;;;;;;5019913;28;20117;-88
2021/07/15 07:43:37;;;;;;;7.07;3.58;;;24.30;99.90;;;;;;5035714;28;20112;-89
2021/07/15 07:46:04;;;;;;;5.70;3.72;;;24.30;99.90;;;;;;5036148;28;20060;-88
2021/07/15 07:48:29;;;;;;;3.90;3.50;;;24.30;99.90;;;;;;5036494;28;20087;-88
2021/07/15 07:50:58;;;;;;;4.32;3.53;;;24.30;99.90;;;;;;5035962;28;20422;-88
2021/07/15 07:53:25;;;;;;;5.32;3.67;;;24.30;99.90;;;;;;5035978;28;20153;-89
2021/07/15 07:55:51;;;;;;;3.53;3.10;;;24.30;99.90;;;;;;5019770;28;20079;-89
2021/07/15 07:58:16;;;;;;;4.43;3.58;;;24.30;99.90;;;;;;5035858;28;20489;-88
2021/07/15 08:00:42;;;;;;;3.95;3.53;;;24.30;99.90;;;;;;5018347;28;20071;-89
2021/07/15 08:03:08;;;;;;;4.05;3.55;;;24.30;99.90;;;;;;5036134;28;20125;-89
2021/07/15 08:05:38;;;;;;;3.28;2.97;;;24.30;99.90;;;;;;5019382;28;20487;-94
2021/07/15 08:08:04;;;;;;;4.07;3.28;;;24.30;99.90;;;;;;5020595;28;20033;-89
2021/07/15 08:10:30;;;;;;;3.67;3.25;;;24.30;99.90;;;;;;5019519;28;20037;-88
2021/07/15 08:12:56;;;;;;;3.10;2.80;;;24.30;99.90;;;;;;5053156;28;20029;-89
2021/07/15 08:15:22;;;;;;;2.95;2.40;;;24.30;99.90;;;;;;5035741;28;20087;-89
2021/07/15 08:17:47;;;;;;;2.70;2.35;;;24.30;99.90;;;;;;5055922;28;20025;-90
2021/07/15 08:20:13;;;;;;;5.03;2.78;;;24.30;99.90;;;;;;5019498;28;20112;-89
2021/07/15 08:22:42;;;;;;;3.15;2.85;;;24.30;99.90;;;;;;5035651;28;20033;-89
2021/07/15 08:25:09;;;;;;;2.33;2.13;;;24.30;99.90;;;;;;5019567;28;20065;-88
2021/07/15 08:27:35;;;;;;;3.67;2.28;;;24.30;99.90;;;;;;5035638;28;20055;-88
2021/07/15 08:30:01;;;;;;;2.35;2.10;;;24.40;99.90;;;;;;5019628;28;20116;-89
2021/07/15 08:32:27;;;;;;;3.17;2.55;;;24.30;99.90;;;;;;5035173;28;20391;-87
2021/07/15 08:34:53;;;;;;;2.80;2.50;;;24.40;99.90;;;;;;5034920;28;20093;-87
2021/07/15 08:37:18;;;;;;;3.25;2.15;;;24.30;99.90;;;;;;5035121;28;20135;-88
2021/07/15 08:39:44;;;;;;;2.85;2.50;;;24.40;99.90;;;;;;5018605;28;20028;-88
2021/07/15 08:42:10;;;;;;;3.85;2.50;;;24.40;99.90;;;;;;5035580;28;20040;-88
2021/07/15 08:44:38;;;;;;;2.45;2.25;;;24.40;99.90;;;;;;5035675;28;20116;-88
2021/07/15 08:47:04;;;;;;;3.50;2.83;;;24.40;99.90;;;;;;5019640;28;20430;-88
2021/07/15 08:49:30;;;;;;;2.58;2.38;;;24.40;99.90;;;;;;5039397;28;20108;-88
2021/07/15 08:51:58;;;;;;;2.17;1.98;;;24.40;99.90;;;;;;5018719;28;20120;-88
2021/07/15 08:54:34;;;;;;;2.63;2.42;;;24.40;99.90;;;;;;5035583;28;20033;-88
2021/07/15 08:57:00;;;;;;;2.28;2.08;;;24.40;99.90;;;;;;5030926;28;20064;-88
2021/07/15 08:59:25;;;;;;;2.40;2.20;;;24.40;99.90;;;;;;5054808;28;20421;-89
2021/07/15 09:01:52;;;;;;;2.90;2.70;;;24.40;99.90;;;;;;5038335;28;20086;-88
2021/07/15 09:04:20;;;;;;;2.97;2.20;;;24.40;99.90;;;;;;5055339;28;20024;-88
2021/07/15 09:06:46;;;;;;;3.97;2.20;;;24.40;99.90;;;;;;5072737;28;20044;-89
2021/07/15 09:09:12;;;;;;;2.50;2.20;;;24.40;99.90;;;;;;5054736;28;20086;-89
2021/07/15 09:11:42;;;;;;;2.58;2.28;;;24.40;99.90;;;;;;5055853;28;20507;-88
2021/07/15 09:14:15;;;;;;;2.60;2.20;;;24.40;99.90;;;;;;5058627;28;20036;-88
2021/07/15 09:16:56;;;;;;;3.08;2.50;;;24.40;99.90;;;;;;5058202;28;20029;-91
2021/07/15 09:19:26;;;;;;;3.92;2.70;;;24.40;99.90;;;;;;5076439;28;20047;-89
2021/07/15 09:21:52;;;;;;;3.28;2.47;;;24.40;99.90;;;;;;5058363;28;20390;-88
2021/07/15 09:24:32;;;;;;;2.10;1.90;;;24.40;99.90;;;;;;5076507;28;20098;-88
2021/07/15 09:27:09;;;;;;;3.03;2.50;;;24.40;99.90;;;;;;5076177;28;20024;-88
2021/07/15 09:29:35;;;;;;;2.55;2.35;;;24.40;99.90;;;;;;5076614;28;20052;-88
2021/07/15 09:32:02;;;;;;;2.13;1.95;;;24.40;99.90;;;;;;5058278;28;20034;-88
2021/07/15 09:34:29;;;;;;;2.30;2.10;;;24.40;99.90;;;;;;5025563;28;20033;-88
2021/07/15 09:36:56;;;;;;;2.78;2.40;;;24.40;99.90;;;;;;5058057;28;20056;-88
2021/07/15 09:39:27;;;;;;;3.47;2.60;;;24.40;99.90;;;;;;5041321;28;20033;-88
2021/07/15 09:42:15;;;;;;;2.50;2.30;;;24.40;99.90;;;;;;5058330;28;20032;-89
2021/07/15 09:44:46;;;;;;;2.30;2.10;;;24.40;99.90;;;;;;5057829;28;20024;-88
2021/07/15 09:47:32;;;;;;;2.67;2.47;;;24.40;99.90;;;;;;5057613;28;20028;-89
2021/07/15 09:49:58;;;;;;;2.60;2.20;;;24.40;99.90;;;;;;5075557;28;20028;-87
2021/07/15 09:52:24;;;;;;;2.38;2.17;;;24.40;99.90;;;;;;5076157;28;20406;-87
2021/07/15 09:54:50;;;;;;;2.40;2.20;;;24.40;99.90;;;;;;5076458;28;20029;-87
2021/07/15 09:57:29;;;;;;;2.72;2.53;;;24.40;99.90;;;;;;5041602;28;20485;-87
2021/07/15 09:59:58;;;;;;;3.28;2.72;;;24.40;99.90;;;;;;5057532;28;20037;-87
2021/07/15 10:02:31;;;;;;;4.28;2.80;;;24.40;99.90;;;;;;5075594;28;20032;-87
2021/07/15 10:04:57;;;;;;;4.03;2.83;;;24.40;99.90;;;;;;5074771;28;20481;-87
2021/07/15 10:07:26;;;;;;;5.32;3.50;;;24.40;99.90;;;;;;5057604;28;20119;-86
2021/07/15 10:10:20;;;;;;;4.15;3.10;;;24.40;99.90;;;;;;5040924;28;20036;-87
2021/07/15 10:12:46;;;;;;;3.90;2.80;;;24.40;99.90;;;;;;5057419;28;20024;-87
2021/07/15 10:15:14;;;;;;;3.03;2.67;;;24.40;99.90;;;;;;5040746;28;20032;-87
2021/07/15 10:17:46;;;;;;;2.97;2.67;;;24.40;99.90;;;;;;5031222;28;20035;-86
2021/07/15 10:20:17;;;;;;;2.85;2.60;;;24.40;99.90;;;;;;5037072;28;20037;-88
2021/07/15 10:22:44;;;;;;;3.15;2.85;;;24.40;99.90;;;;;;5020543;28;20059;-87
2021/07/15 10:25:11;;;;;;;2.50;2.30;;;24.40;99.90;;;;;;5036517;28;20041;-87
2021/07/15 10:27:38;;;;;;;2.80;2.50;;;24.40;99.90;;;;;;5037068;28;20029;-88
2021/07/15 10:30:06;;;;;;;3.45;2.92;;;24.40;99.90;;;;;;5036941;28;20028;-87
2021/07/15 10:32:35;;;;;;;3.17;2.85;;;24.40;99.90;;;;;;5020841;28;20033;-87
2021/07/15 10:35:16;;;;;;;2.90;2.67;;;24.40;99.90;;;;;;5036921;28;20479;-87
2021/07/15 10:37:49;;;;;;;2.42;2.22;;;24.40;99.90;;;;;;5037174;28;20029;-88
2021/07/15 10:40:16;;;;;;;2.50;2.30;;;24.40;99.90;;;;;;5055066;28;20434;-88
2021/07/15 10:42:42;;;;;;;2.55;2.30;;;24.40;99.90;;;;;;5055027;28;20037;-88
2021/07/15 10:45:10;;;;;;;2.70;2.30;;;24.40;99.90;;;;;;5036588;28;20021;-87
2021/07/15 10:47:37;;;;;;;3.20;2.55;;;24.40;99.90;;;;;;5036897;28;20060;-87
2021/07/15 10:50:08;;;;;;;2.60;2.40;;;24.40;99.90;;;;;;5020140;28;20110;-86
2021/07/15 10:52:37;;;;;;;3.70;2.65;;;24.50;99.90;;;;;;5036684;28;20064;-86
2021/07/15 10:55:05;;;;;;;4.72;2.72;;;24.40;99.90;;;;;;5054267;28;20088;-86
2021/07/15 10:57:31;;;;;;;3.80;2.58;;;24.40;99.90;;;;;;5036762;28;20078;-86
2021/07/15 11:00:25;;;;;;;2.75;2.50;;;24.50;99.90;;;;;;5020356;28;20025;-86
2021/07/15 11:03:25;;;;;;;2.83;2.50;;;24.50;99.90;;;;;;5054499;28;20040;-86
2021/07/15 11:05:54;;;;;;;2.65;2.30;;;24.40;99.90;;;;;;4985441;28;20037;-86
2021/07/15 11:08:48;;;;;;;2.63;2.42;;;24.40;99.90;;;;;;5036403;28;20082;-86
2021/07/15 11:11:15;;;;;;;2.67;2.45;;;24.40;99.90;;;;;;5035662;28;20032;-86
2021/07/15 11:13:42;;;;;;;2.30;2.10;;;24.50;99.90;;;;;;5020062;28;20037;-87
2021/07/15 11:16:08;;;;;;;2.38;2.17;;;24.50;99.90;;;;;;5053395;28;20032;-87
2021/07/15 11:18:41;;;;;;;2.33;2.13;;;24.50;99.90;;;;;;5036482;28;20036;-87
2021/07/15 11:21:25;;;;;;;2.40;2.20;;;24.50;99.90;;;;;;5035948;28;20470;-87
2021/07/15 11:24:20;;;;;;;2.20;2.00;;;24.50;99.90;;;;;;5036174;28;20083;-85
2021/07/15 11:26:46;;;;;;;2.17;1.98;;;24.50;99.90;;;;;;5035932;28;20135;-86
2021/07/15 11:29:12;;;;;;;2.30;2.10;;;24.50;99.90;;;;;;5019271;28;20486;-86
2021/07/15 11:31:50;;;;;;;1.92;1.83;;;24.50;99.90;;;;;;5019141;28;20120;-87
2021/07/15 11:34:40;;;;;;;2.38;2.13;;;24.50;99.90;;;;;;5035794;28;20029;-86
2021/07/15 11:37:37;;;;;;;2.90;2.00;;;24.50;99.90;;;;;;5052877;28;20029;-86
2021/07/15 11:40:06;;;;;;;2.45;2.25;;;24.50;99.90;;;;;;5034827;28;20040;-86
2021/07/15 11:42:34;;;;;;;2.55;2.20;;;24.50;99.90;;;;;;5035459;28;20099;-86
2021/07/15 11:45:03;;;;;;;2.33;1.90;;;24.50;99.90;;;;;;5036001;28;20060;-86
2021/07/15 11:47:52;;;;;;;1.85;1.75;;;24.50;99.90;;;;;;5053513;28;20055;-86
2021/07/15 11:50:29;;;;;;;2.75;2.20;;;24.60;99.90;;;;;;5036482;28;20039;-85
2021/07/15 11:53:14;;;;;;;2.13;1.92;;;24.60;99.90;;;;;;5035368;28;20605;-86
2021/07/15 11:55:39;;;;;;;2.13;1.92;;;24.60;99.90;;;;;;5035553;28;20029;-86
2021/07/15 11:58:05;;;;;;;2.30;2.10;;;24.60;99.90;;;;;;5019213;28;20090;-86
2021/07/15 12:00:31;;;;;;;2.00;1.80;;;24.50;99.90;;;;;;5036054;28;20442;-88
2021/07/15 12:02:58;;;;;;;2.08;1.88;;;24.60;99.90;;;;;;5035941;28;20029;-90
2021/07/15 12:05:29;;;;;;;2.20;2.00;;;24.50;99.90;;;;;;5034337;28;20134;-87
2021/07/15 12:08:07;;;;;;;3.25;2.05;;;24.50;99.90;;;;;;5052507;28;20127;-86
2021/07/15 12:10:36;;;;;;;2.35;2.00;;;24.60;99.90;;;;;;5034944;28;20025;-86
2021/07/15 12:13:10;;;;;;;2.10;1.90;;;24.60;99.90;;;;;;5052916;28;20032;-86
2021/07/15 12:15:37;;;;;;;;;;;24.60;99.90;;;;;;5035859;28;20029;-86
2021/07/15 12:18:11;;;;;;;2.15;1.95;;;24.50;99.90;;;;;;5052811;28;19917;-87
2021/07/15 12:20:53;;;;;;;2.40;2.20;;;24.50;99.90;;;;;;5035376;28;20047;-86
2021/07/15 12:23:23;;;;;;;2.50;2.30;;;24.50;99.90;;;;;;5035080;28;20052;-86
2021/07/15 12:25:51;;;;;;;2.00;1.80;;;24.50;99.90;;;;;;5053056;28;20037;-86
2021/07/15 12:28:24;;;;;;;2.42;2.22;;;24.50;99.90;;;;;;5021038;28;20025;-86
2021/07/15 12:30:55;;;;;;;2.42;2.00;;;24.50;99.90;;;;;;5053262;28;20017;-86
2021/07/15 12:33:23;;;;;;;2.28;2.08;;;24.50;99.90;;;;;;5034990;28;20040;-86
2021/07/15 12:35:51;;;;;;;2.08;1.90;;;24.50;99.90;;;;;;5053109;28;20467;-86
2021/07/15 12:38:24;;;;;;;2.67;2.17;;;24.50;99.90;;;;;;5052267;28;20502;-86
2021/07/15 12:41:03;;;;;;;2.40;2.20;;;24.50;99.90;;;;;;5053024;28;20021;-85
2021/07/15 12:43:48;;;;;;;2.25;2.05;;;24.50;99.90;;;;;;5037158;28;20040;-85
2021/07/15 12:46:28;;;;;;;2.65;1.98;;;24.50;99.90;;;;;;5035157;28;20031;-85
2021/07/15 12:48:58;;;;;;;2.20;2.00;;;24.50;99.90;;;;;;5039159;28;20033;-86
2021/07/15 12:51:30;;;;;;;2.00;1.75;;;24.50;99.90;;;;;;5022701;28;20051;-86
2021/07/15 12:53:56;;;;;;;2.25;1.98;;;24.50;99.90;;;;;;5056760;28;20068;-86
2021/07/15 12:56:24;;;;;;;2.00;1.85;;;24.50;99.90;;;;;;5022546;28;20127;-86
2021/07/15 12:59:04;;;;;;;1.92;1.73;;;24.60;99.90;;;;;;5056733;28;20021;-86
2021/07/15 13:01:30;;;;;;;2.15;1.95;;;24.50;99.90;;;;;;5056549;28;20075;-86
2021/07/15 13:04:15;;;;;;;2.00;1.90;;;24.50;99.90;;;;;;5022316;28;20068;-86
2021/07/15 13:06:46;;;;;;;1.85;1.63;;;24.60;99.90;;;;;;5056769;28;20048;-86